METAR Data
IDs: Format: Raw Decoded Include TAF

Data at: 2206 UTC 22 Sep 2020

METAR for:KDAA (Fort Belvoir/Davison, VA, US)
Text:KDAA 222156Z AUTO 30006KT 10SM CLR 21/07 A3003 RMK AO2 SLP172 T02140069 $
Temperature: 21.4°C ( 71°F)
Dewpoint: 6.9°C ( 44°F) [RH = 39%]
Pressure (altimeter):30.03 inches Hg (1017.0 mb) [Sea level pressure: 1017.2 mb]
Winds:from the WNW (300 degrees) at 7 MPH (6 knots; 3.1 m/s)
Visibility:10 or more sm (16+ km)
Ceiling:at least 12,000 feet AGL
Clouds:sky clear below 12,000 feet AGL
QC Flag:automated observation with no human augmentation; SOME DATA ABOVE MAY BE INACCURATE!!!"$" is an indication the sensor requires maintenance.